createdAt,value
2022-10-21T00:01:02.765Z,100.00
2022-10-21T00:03:30.660Z,100.00
2022-10-21T00:06:00.029Z,100.00
2022-10-21T00:08:28.151Z,100.00
2022-10-21T00:10:59.252Z,99.64
2022-10-21T00:13:29.227Z,100.00
2022-10-21T00:16:01.301Z,99.89
2022-10-21T00:18:30.020Z,100.00
2022-10-21T00:20:59.711Z,100.00
2022-10-21T00:23:27.937Z,100.00
2022-10-21T00:26:00.223Z,100.00
2022-10-21T00:28:28.746Z,100.00
2022-10-21T00:30:58.170Z,100.00
2022-10-21T00:33:28.359Z,100.00
2022-10-21T00:36:02.737Z,100.00
2022-10-21T00:38:30.982Z,100.00
2022-10-21T00:40:59.316Z,100.00
2022-10-21T00:43:28.203Z,100.00
2022-10-21T00:46:00.864Z,100.00
2022-10-21T00:48:34.194Z,100.00
2022-10-21T00:51:06.959Z,100.00
2022-10-21T00:53:37.648Z,100.00
2022-10-21T00:56:15.425Z,100.00
2022-10-21T00:58:46.857Z,100.00
2022-10-21T01:01:18.051Z,100.00
2022-10-21T01:03:49.360Z,100.00
2022-10-21T01:06:23.058Z,100.00
2022-10-21T01:08:54.652Z,100.00
2022-10-21T01:11:24.594Z,100.00
2022-10-21T01:14:12.752Z,100.00
2022-10-21T01:16:48.610Z,100.00
2022-10-21T01:20:04.171Z,100.00
2022-10-21T01:22:57.572Z,100.00
2022-10-21T01:25:45.053Z,100.00
2022-10-21T01:28:25.165Z,100.00
2022-10-21T01:30:57.234Z,100.00
2022-10-21T01:39:47.355Z,100.00
2022-10-21T01:42:20.973Z,100.00
2022-10-21T01:44:54.909Z,100.00
2022-10-21T01:47:28.615Z,100.00
2022-10-21T01:50:01.838Z,100.00
2022-10-21T01:52:30.948Z,100.00
2022-10-21T01:55:02.473Z,100.00
2022-10-21T01:57:36.978Z,100.00
2022-10-21T02:00:06.463Z,100.00
2022-10-21T02:02:40.497Z,100.00
2022-10-21T02:05:14.956Z,100.00
2022-10-21T02:07:44.257Z,100.00
2022-10-21T02:10:12.644Z,100.00
2022-10-21T02:12:44.576Z,100.00
2022-10-21T02:15:14.923Z,100.00
2022-10-21T02:17:50.990Z,100.00
2022-10-21T02:20:20.164Z,100.00
2022-10-21T02:22:49.712Z,100.00
2022-10-21T02:25:21.300Z,100.00
2022-10-21T02:27:51.911Z,100.00
2022-10-21T02:30:20.613Z,100.00
2022-10-21T02:32:57.735Z,100.00
2022-10-21T02:35:39.374Z,100.00
2022-10-21T02:38:15.715Z,100.00
2022-10-21T02:40:46.694Z,100.00
2022-10-21T02:43:20.345Z,100.00
2022-10-21T02:45:49.161Z,100.00
2022-10-21T02:48:18.381Z,100.00
2022-10-21T02:50:46.375Z,100.00
2022-10-21T02:53:15.065Z,100.00
2022-10-21T02:55:43.040Z,100.00
2022-10-21T02:58:10.884Z,100.00
2022-10-21T03:00:38.984Z,100.00
2022-10-21T03:03:06.962Z,100.00
2022-10-21T03:05:36.200Z,100.00
2022-10-21T03:08:04.213Z,100.00
2022-10-21T03:10:32.223Z,100.00
2022-10-21T03:13:00.155Z,100.00
2022-10-21T03:15:28.068Z,100.00
2022-10-21T03:17:55.998Z,100.00
2022-10-21T03:20:24.028Z,100.00
2022-10-21T03:22:53.259Z,100.00
2022-10-21T03:25:21.246Z,100.00
2022-10-21T03:27:50.928Z,100.00
2022-10-21T03:30:19.178Z,100.00
2022-10-21T03:32:47.094Z,100.00
2022-10-21T03:35:15.256Z,100.00
2022-10-21T03:37:43.228Z,100.00
2022-10-21T03:40:13.229Z,100.00
2022-10-21T03:42:41.491Z,100.00
2022-10-21T03:45:10.590Z,100.00
2022-10-21T03:47:38.702Z,100.00
2022-10-21T03:50:11.892Z,100.00
2022-10-21T03:52:41.992Z,100.00
2022-10-21T03:55:10.233Z,100.00
2022-10-21T03:57:39.793Z,100.00
2022-10-21T04:00:09.371Z,100.00
2022-10-21T04:02:43.596Z,100.00
2022-10-21T04:05:12.312Z,100.00
2022-10-21T04:07:40.457Z,100.00
2022-10-21T04:10:10.204Z,100.00
2022-10-21T04:12:39.843Z,100.00
2022-10-21T04:15:09.639Z,100.00
2022-10-21T04:17:37.527Z,100.00
2022-10-21T04:20:06.434Z,100.00
2022-10-21T04:22:34.391Z,100.00
2022-10-21T04:25:04.689Z,100.00
2022-10-21T04:27:32.935Z,100.00
2022-10-21T04:30:02.144Z,100.00
2022-10-21T04:32:30.063Z,100.00
2022-10-21T04:34:57.940Z,100.00
2022-10-21T04:37:25.930Z,100.00
2022-10-21T04:39:53.779Z,100.00
2022-10-21T04:42:21.771Z,100.00
2022-10-21T04:44:49.753Z,100.00
2022-10-21T04:47:19.204Z,100.00
2022-10-21T04:49:47.122Z,100.00
2022-10-21T04:52:15.067Z,100.00
2022-10-21T04:54:42.948Z,100.00
2022-10-21T04:57:10.870Z,100.00
2022-10-21T04:59:38.796Z,100.00
2022-10-21T05:02:06.696Z,100.00
2022-10-21T05:04:35.977Z,100.00
2022-10-21T05:07:03.952Z,100.00
2022-10-21T05:09:31.986Z,100.00
2022-10-21T05:11:59.931Z,100.00
2022-10-21T05:14:27.820Z,100.00
2022-10-21T05:16:55.781Z,100.00
2022-10-21T05:19:26.531Z,100.00
2022-10-21T05:21:57.606Z,100.00
2022-10-21T05:24:26.359Z,100.00
2022-10-21T05:26:54.275Z,100.00
2022-10-21T05:29:22.210Z,100.00
2022-10-21T05:31:50.087Z,100.00
2022-10-21T05:34:18.123Z,100.00
2022-10-21T05:36:46.017Z,100.00
2022-10-21T05:39:15.337Z,100.00
2022-10-21T05:41:45.560Z,100.00
2022-10-21T05:44:15.823Z,100.00
2022-10-21T05:46:43.767Z,100.00
2022-10-21T05:49:12.890Z,100.00
2022-10-21T05:51:40.843Z,100.00
2022-10-21T05:54:08.718Z,100.00
2022-10-21T05:56:38.132Z,100.00
2022-10-21T05:59:07.953Z,100.00
2022-10-21T06:01:39.484Z,100.00
2022-10-21T06:04:07.754Z,100.00
2022-10-21T06:06:35.634Z,100.00
2022-10-21T06:09:03.636Z,100.00
2022-10-21T06:11:32.313Z,100.00
2022-10-21T06:14:01.558Z,100.00
2022-10-21T06:16:29.517Z,100.00
2022-10-21T06:18:57.428Z,100.00
2022-10-21T06:21:25.306Z,100.00
2022-10-21T06:23:54.637Z,100.00
2022-10-21T06:26:22.843Z,100.00
2022-10-21T06:28:50.779Z,100.00
2022-10-21T06:31:21.613Z,100.00
2022-10-21T06:33:49.916Z,100.00
2022-10-21T06:36:17.924Z,100.00
2022-10-21T06:38:45.819Z,100.00
2022-10-21T06:41:15.311Z,100.00
2022-10-21T06:43:43.906Z,100.00
2022-10-21T06:46:14.103Z,100.00
2022-10-21T06:48:43.848Z,100.00
2022-10-21T06:51:15.403Z,100.00
2022-10-21T06:53:44.115Z,100.00
2022-10-21T06:56:14.509Z,100.00
2022-10-21T06:58:43.417Z,100.00
2022-10-21T07:01:27.302Z,100.00
2022-10-21T07:04:03.331Z,100.00
2022-10-21T07:09:06.217Z,100.00
2022-10-21T07:11:34.183Z,100.00
2022-10-21T07:14:02.798Z,100.00
2022-10-21T07:16:32.225Z,100.00
2022-10-21T07:19:00.281Z,100.00
2022-10-21T07:21:31.740Z,100.00
2022-10-21T07:24:01.319Z,100.00
2022-10-21T07:26:30.863Z,100.00
2022-10-21T07:29:00.525Z,100.00
2022-10-21T07:31:29.796Z,100.00
2022-10-21T07:33:57.775Z,100.00
2022-10-21T07:36:27.706Z,100.00
2022-10-21T07:38:59.972Z,100.00
2022-10-21T07:41:31.563Z,100.00
2022-10-21T07:43:59.747Z,100.00
2022-10-21T07:46:27.689Z,100.00
2022-10-21T07:48:56.321Z,100.00
2022-10-21T07:51:28.584Z,100.00
2022-10-21T07:54:01.841Z,100.00
2022-10-21T07:56:32.015Z,100.00
2022-10-21T07:59:01.562Z,100.00
2022-10-21T08:01:30.323Z,100.00
2022-10-21T08:03:59.052Z,100.00
2022-10-21T08:06:28.806Z,100.00
2022-10-21T08:08:57.454Z,100.00
2022-10-21T08:11:29.320Z,100.00
2022-10-21T08:13:57.810Z,100.00
2022-10-21T08:16:26.572Z,100.00
2022-10-21T08:18:54.700Z,100.00
2022-10-21T08:21:22.675Z,100.00
2022-10-21T08:23:50.587Z,100.00
2022-10-21T08:26:18.431Z,100.00
2022-10-21T08:28:47.762Z,100.00
2022-10-21T08:31:18.312Z,100.00
2022-10-21T08:33:46.496Z,100.00
2022-10-21T08:36:16.675Z,100.00
2022-10-21T08:38:45.168Z,100.00
2022-10-21T08:41:28.374Z,100.00
2022-10-21T08:44:01.335Z,100.00
2022-10-21T08:46:35.056Z,100.00
2022-10-21T08:49:10.591Z,100.00
2022-10-21T08:51:45.791Z,100.00
2022-10-21T08:54:18.572Z,100.00
2022-10-21T08:56:48.094Z,100.00
2022-10-21T08:59:21.701Z,100.00
2022-10-21T09:01:56.460Z,100.00
2022-10-21T09:04:34.381Z,100.00
2022-10-21T09:07:09.785Z,100.00
2022-10-21T09:09:45.030Z,100.00
2022-10-21T09:12:21.427Z,100.00
2022-10-21T09:15:11.274Z,100.00
2022-10-21T09:17:51.968Z,100.00
2022-10-21T09:20:33.030Z,100.00
2022-10-21T09:23:12.126Z,100.00
2022-10-21T09:25:46.664Z,100.00
2022-10-21T09:28:16.764Z,100.00
2022-10-21T09:30:46.293Z,100.00
2022-10-21T09:33:19.821Z,100.00
2022-10-21T09:35:51.953Z,100.00
2022-10-21T09:38:25.982Z,100.00
2022-10-21T09:40:59.278Z,100.00
2022-10-21T09:43:28.371Z,100.00
2022-10-21T09:45:58.639Z,100.00
2022-10-21T09:48:33.721Z,100.00
2022-10-21T09:51:11.149Z,100.00
2022-10-21T09:53:49.973Z,100.00
2022-10-21T09:56:21.812Z,100.00
2022-10-21T09:58:52.542Z,100.00
2022-10-21T10:01:23.726Z,100.00
2022-10-21T10:03:53.730Z,100.00
2022-10-21T10:06:36.411Z,100.00
2022-10-21T10:09:16.250Z,100.00
2022-10-21T10:11:53.700Z,100.00
2022-10-21T10:14:28.147Z,100.00
2022-10-21T10:16:57.952Z,100.00
2022-10-21T10:19:28.326Z,100.00
2022-10-21T10:22:13.585Z,100.00
2022-10-21T10:24:42.181Z,100.00
2022-10-21T10:27:15.702Z,100.00
2022-10-21T10:29:49.896Z,100.00
2022-10-21T10:32:19.515Z,100.00
2022-10-21T10:34:54.082Z,100.00
2022-10-21T10:37:24.391Z,99.73
2022-10-21T10:39:56.482Z,99.60
2022-10-21T10:42:28.344Z,99.39
2022-10-21T10:44:58.579Z,98.91
2022-10-21T10:47:30.389Z,97.25
2022-10-21T10:49:58.395Z,97.09
2022-10-21T10:52:26.269Z,98.78
2022-10-21T10:55:17.463Z,96.76
2022-10-21T10:57:58.955Z,96.66
2022-10-21T11:00:42.184Z,96.03
2022-10-21T11:03:15.847Z,96.13
2022-10-21T11:05:46.205Z,94.64
2022-10-21T11:08:17.443Z,94.62
2022-10-21T11:10:48.709Z,95.83
2022-10-21T11:13:18.687Z,95.42
2022-10-21T11:16:02.113Z,94.67
2022-10-21T11:18:36.000Z,93.98
2022-10-21T11:21:12.600Z,94.16
2022-10-21T11:24:07.110Z,94.55
2022-10-21T11:26:43.695Z,92.98
2022-10-21T11:29:40.148Z,92.74
2022-10-21T11:32:21.476Z,91.07
2022-10-21T11:35:01.999Z,91.42
2022-10-21T11:37:47.433Z,90.00
2022-10-21T11:40:26.471Z,89.41
2022-10-21T11:42:55.684Z,89.90
2022-10-21T11:45:33.214Z,90.13
2022-10-21T11:48:12.254Z,90.22
2022-10-21T11:50:50.312Z,88.88
2022-10-21T11:53:33.190Z,89.54
2022-10-21T11:56:14.262Z,88.38
2022-10-21T11:58:59.353Z,88.67
2022-10-21T12:01:46.773Z,88.65
2022-10-21T12:04:29.185Z,88.31
2022-10-21T12:07:13.790Z,88.20
2022-10-21T12:09:49.081Z,90.35
2022-10-21T12:12:20.356Z,90.15
2022-10-21T12:14:51.864Z,90.17
2022-10-21T12:17:23.011Z,90.50
2022-10-21T12:19:56.454Z,89.10
2022-10-21T12:22:29.420Z,89.24
2022-10-21T12:25:05.756Z,88.89
2022-10-21T12:27:41.126Z,89.59
2022-10-21T12:30:17.409Z,90.09
2022-10-21T12:32:54.146Z,89.78
2022-10-21T12:35:28.089Z,90.28
2022-10-21T12:38:20.280Z,90.30
2022-10-21T12:40:49.444Z,90.08
2022-10-21T12:43:22.538Z,90.42
2022-10-21T12:46:05.003Z,90.30
2022-10-21T12:48:36.380Z,90.02
2022-10-21T12:51:07.787Z,90.00
2022-10-21T12:53:42.959Z,90.08
2022-10-21T12:56:12.050Z,90.65
2022-10-21T12:58:44.744Z,90.35
2022-10-21T13:01:36.825Z,91.05
2022-10-21T13:04:04.924Z,91.50
2022-10-21T13:06:54.061Z,90.64
2022-10-21T13:09:39.032Z,90.83
2022-10-21T13:12:28.578Z,90.58
2022-10-21T13:14:58.450Z,90.41
2022-10-21T13:17:34.477Z,90.36
2022-10-21T13:20:39.794Z,90.93
2022-10-21T13:23:39.387Z,90.98
2022-10-21T13:26:16.406Z,91.15
2022-10-21T13:28:57.459Z,91.94
2022-10-21T13:31:25.433Z,91.28
2022-10-21T13:33:55.871Z,91.77
2022-10-21T13:39:09.703Z,91.29
2022-10-21T13:41:39.488Z,91.10
2022-10-21T13:44:08.702Z,90.96
2022-10-21T13:46:42.480Z,91.27
2022-10-21T13:49:28.095Z,91.28
2022-10-21T13:51:56.501Z,89.88
2022-10-21T13:54:24.610Z,90.28
2022-10-21T13:56:53.928Z,90.67
2022-10-21T13:59:28.898Z,90.08
2022-10-21T14:01:58.362Z,90.52
2022-10-21T14:04:27.918Z,91.16
2022-10-21T14:06:58.767Z,90.94
2022-10-21T14:09:29.876Z,90.89
2022-10-21T14:12:02.536Z,90.51
2022-10-21T14:14:32.642Z,90.90
2022-10-21T14:17:02.750Z,91.33
2022-10-21T14:19:33.265Z,91.41
2022-10-21T14:22:02.122Z,91.73
2022-10-21T14:24:38.669Z,92.27
2022-10-21T14:27:09.532Z,92.20
2022-10-21T14:29:38.057Z,91.07
2022-10-21T14:32:07.038Z,91.88
2022-10-21T14:34:37.254Z,90.91
2022-10-21T14:37:19.370Z,92.14
2022-10-21T14:39:47.403Z,92.13
2022-10-21T14:42:19.776Z,91.58
2022-10-21T14:44:49.665Z,91.34
2022-10-21T14:47:19.893Z,91.53
2022-10-21T14:49:49.860Z,91.60
2022-10-21T14:52:21.925Z,91.62
2022-10-21T14:54:54.050Z,90.02
2022-10-21T14:57:34.719Z,91.07
2022-10-21T15:00:03.491Z,91.15
2022-10-21T15:02:36.643Z,91.50
2022-10-21T15:05:06.682Z,90.73
2022-10-21T15:07:36.413Z,91.10
2022-10-21T15:10:19.280Z,90.44
2022-10-21T15:12:51.372Z,90.48
2022-10-21T15:15:52.613Z,91.48
2022-10-21T15:18:24.287Z,91.61
2022-10-21T15:20:58.332Z,92.59
2022-10-21T15:23:30.951Z,92.43
2022-10-21T15:26:03.594Z,92.52
2022-10-21T15:28:34.833Z,92.04
2022-10-21T15:31:03.503Z,92.51
2022-10-21T15:33:31.532Z,92.46
2022-10-21T15:36:04.341Z,92.55
2022-10-21T15:38:32.273Z,92.41
2022-10-21T15:41:00.161Z,92.90
2022-10-21T15:43:28.496Z,92.92
2022-10-21T15:45:57.753Z,92.96
2022-10-21T15:48:25.780Z,92.79
2022-10-21T15:50:57.185Z,92.79
2022-10-21T15:53:25.169Z,92.30
2022-10-21T15:55:54.147Z,92.81
2022-10-21T15:58:22.024Z,92.79
2022-10-21T16:00:50.141Z,93.44
2022-10-21T16:03:19.474Z,92.87
2022-10-21T16:05:47.539Z,92.38
2022-10-21T16:08:15.671Z,92.59
2022-10-21T16:10:47.660Z,92.56
2022-10-21T16:13:15.877Z,91.72
2022-10-21T16:15:43.861Z,91.59
2022-10-21T16:18:13.358Z,91.83
2022-10-21T16:20:44.448Z,92.06
2022-10-21T16:23:12.596Z,92.25
2022-10-21T16:25:40.570Z,91.63
2022-10-21T16:28:08.505Z,91.72
2022-10-21T16:30:39.089Z,92.24
2022-10-21T16:33:07.088Z,92.17
2022-10-21T16:35:34.995Z,92.28
2022-10-21T16:38:04.257Z,92.11
2022-10-21T16:40:34.909Z,92.62
2022-10-21T16:43:02.954Z,92.74
2022-10-21T16:45:32.808Z,92.26
2022-10-21T16:48:04.137Z,91.86
2022-10-21T16:50:39.310Z,92.22
2022-10-21T16:53:09.068Z,91.40
2022-10-21T16:55:37.074Z,91.25
2022-10-21T16:58:05.435Z,91.13
2022-10-21T17:00:33.364Z,91.27
2022-10-21T17:03:01.624Z,91.51
2022-10-21T17:05:29.493Z,91.14
2022-10-21T17:07:58.569Z,91.12
2022-10-21T17:10:28.081Z,91.08
2022-10-21T17:12:59.032Z,90.98
2022-10-21T17:15:27.307Z,91.13
2022-10-21T17:17:55.302Z,91.01
2022-10-21T17:20:23.241Z,90.89
2022-10-21T17:22:51.167Z,90.81
2022-10-21T17:25:19.106Z,90.64
2022-10-21T17:27:48.362Z,91.39
2022-10-21T17:30:16.380Z,91.35
2022-10-21T17:32:44.467Z,90.79
2022-10-21T17:35:18.647Z,91.47
2022-10-21T17:37:47.265Z,91.19
2022-10-21T17:40:17.672Z,91.15
2022-10-21T17:42:45.619Z,91.53
2022-10-21T17:45:16.862Z,91.66
2022-10-21T17:47:45.014Z,92.20
2022-10-21T17:50:13.900Z,92.03
2022-10-21T17:52:43.564Z,91.79
2022-10-21T17:55:11.714Z,92.32
2022-10-21T17:57:39.628Z,91.67
2022-10-21T18:00:09.551Z,91.12
2022-10-21T18:02:39.188Z,91.48
2022-10-21T18:05:09.875Z,91.46
2022-10-21T18:07:38.896Z,91.61
2022-10-21T18:10:08.141Z,91.60
2022-10-21T18:12:36.582Z,92.30
2022-10-21T18:15:05.261Z,91.77
2022-10-21T18:17:33.829Z,91.55
2022-10-21T18:20:03.143Z,91.67
2022-10-21T18:22:31.048Z,91.46
2022-10-21T18:24:58.985Z,91.49
2022-10-21T18:27:26.852Z,91.67
2022-10-21T18:29:54.798Z,91.84
2022-10-21T18:32:22.815Z,91.79
2022-10-21T18:34:51.007Z,92.18
2022-10-21T18:37:20.768Z,92.41
2022-10-21T18:39:48.691Z,92.66
2022-10-21T18:42:16.609Z,92.28
2022-10-21T18:44:44.579Z,92.16
2022-10-21T18:47:12.951Z,92.34
2022-10-21T18:49:40.869Z,92.57
2022-10-21T18:52:08.751Z,92.67
2022-10-21T18:54:38.039Z,92.82
2022-10-21T18:57:09.803Z,92.47
2022-10-21T18:59:37.976Z,92.35
2022-10-21T19:02:06.009Z,92.45
2022-10-21T19:04:34.096Z,92.21
2022-10-21T19:07:02.068Z,92.39
2022-10-21T19:09:29.920Z,92.67
2022-10-21T19:12:02.842Z,92.40
2022-10-21T19:14:32.372Z,92.46
2022-10-21T19:17:00.735Z,92.44
2022-10-21T19:19:29.081Z,92.54
2022-10-21T19:21:57.013Z,92.70
2022-10-21T19:24:25.497Z,92.74
2022-10-21T19:26:54.635Z,92.66
2022-10-21T19:29:25.776Z,92.71
2022-10-21T19:31:55.714Z,92.48
2022-10-21T19:34:26.827Z,92.55
2022-10-21T19:36:55.132Z,92.60
2022-10-21T19:39:23.106Z,92.50
2022-10-21T19:41:51.140Z,92.63
2022-10-21T19:44:19.339Z,92.62
2022-10-21T19:46:48.657Z,92.61
2022-10-21T19:49:16.605Z,93.20
2022-10-21T19:51:45.304Z,93.03
2022-10-21T19:54:14.398Z,93.15
2022-10-21T19:56:42.570Z,92.90
2022-10-21T19:59:11.325Z,93.23
2022-10-21T20:01:39.406Z,93.46
2022-10-21T20:04:08.674Z,93.61
2022-10-21T20:06:38.154Z,93.39
2022-10-21T20:09:08.556Z,93.73
2022-10-21T20:11:37.372Z,93.90
2022-10-21T20:14:06.046Z,93.73
2022-10-21T20:16:36.182Z,93.89
2022-10-21T20:19:05.908Z,94.02
2022-10-21T20:21:37.421Z,94.05
2022-10-21T20:24:06.076Z,94.47
2022-10-21T20:26:34.517Z,94.76
2022-10-21T20:29:03.164Z,95.03
2022-10-21T20:31:31.302Z,95.52
2022-10-21T20:33:59.173Z,95.85
2022-10-21T20:36:28.710Z,95.74
2022-10-21T20:38:59.559Z,96.37
2022-10-21T20:41:30.893Z,96.85
2022-10-21T20:43:58.714Z,97.38
2022-10-21T20:46:27.262Z,97.35
2022-10-21T20:48:56.118Z,97.93
2022-10-21T20:51:25.515Z,98.04
2022-10-21T20:53:55.326Z,98.19
2022-10-21T20:56:27.682Z,99.09
2022-10-21T20:58:55.747Z,99.36
2022-10-21T21:01:26.078Z,99.13
2022-10-21T21:03:54.877Z,99.05
2022-10-21T21:06:22.901Z,98.69
2022-10-21T21:09:08.530Z,97.94
2022-10-21T21:11:40.217Z,98.04
2022-10-21T21:14:08.178Z,98.47
2022-10-21T21:16:36.515Z,98.72
2022-10-21T21:19:07.034Z,98.73
2022-10-21T21:21:36.651Z,98.22
2022-10-21T21:24:05.288Z,98.18
2022-10-21T21:26:35.312Z,98.25
2022-10-21T21:29:06.768Z,97.77
2022-10-21T21:31:35.785Z,98.27
2022-10-21T21:34:04.169Z,97.91
2022-10-21T21:36:32.054Z,97.65
2022-10-21T21:39:00.165Z,97.83
2022-10-21T21:41:28.223Z,97.05
2022-10-21T21:43:56.758Z,97.80
2022-10-21T21:46:27.090Z,97.13
2022-10-21T21:48:59.532Z,96.96
2022-10-21T21:51:31.172Z,95.09
2022-10-21T21:54:00.111Z,93.84
2022-10-21T21:56:28.930Z,95.37
2022-10-21T21:58:58.075Z,94.46
2022-10-21T22:01:29.894Z,95.75
2022-10-21T22:03:58.635Z,94.74
2022-10-21T22:06:28.969Z,92.91
2022-10-21T22:08:57.195Z,94.99
2022-10-21T22:11:27.341Z,93.31
2022-10-21T22:13:55.248Z,93.53
2022-10-21T22:16:25.678Z,93.66
2022-10-21T22:18:55.349Z,93.31
2022-10-21T22:21:25.213Z,92.07
2022-10-21T22:23:53.723Z,92.18
2022-10-21T22:26:23.137Z,92.04
2022-10-21T22:28:51.103Z,94.37
2022-10-21T22:31:25.788Z,93.28
2022-10-21T22:33:59.350Z,92.60
2022-10-21T22:36:27.250Z,93.37
2022-10-21T22:38:55.135Z,94.14
2022-10-21T22:41:22.977Z,95.50
2022-10-21T22:43:50.907Z,96.01
2022-10-21T22:46:33.524Z,95.06
2022-10-21T22:49:04.452Z,96.01
2022-10-21T22:51:33.382Z,96.64
2022-10-21T22:54:01.578Z,96.72
2022-10-21T22:56:30.046Z,97.51
2022-10-21T22:58:58.325Z,96.17
2022-10-21T23:01:30.031Z,96.63
2022-10-21T23:03:58.388Z,96.46
2022-10-21T23:06:27.654Z,98.19
2022-10-21T23:08:55.569Z,98.21
2022-10-21T23:11:23.526Z,97.79
2022-10-21T23:14:02.475Z,97.40
2022-10-21T23:16:30.870Z,96.50
2022-10-21T23:18:58.819Z,97.08
2022-10-21T23:21:28.759Z,97.78
2022-10-21T23:23:57.240Z,97.02
2022-10-21T23:26:25.440Z,98.67
2022-10-21T23:28:53.460Z,97.70
2022-10-21T23:31:21.305Z,95.72
2022-10-21T23:33:49.284Z,95.47
2022-10-21T23:36:17.126Z,94.85
2022-10-21T23:38:46.363Z,94.64
2022-10-21T23:41:14.825Z,97.01
2022-10-21T23:43:42.706Z,96.83
2022-10-21T23:46:10.627Z,97.68
2022-10-21T23:48:38.474Z,96.79
2022-10-21T23:51:06.917Z,97.52
2022-10-21T23:53:34.824Z,96.99
2022-10-21T23:56:04.287Z,97.65
2022-10-21T23:58:32.333Z,97.72
